Time;durP1;ratioP1;P1;durP2;ratioP2;P2;SDS_P1;SDS_P2;PMS_P1;PMS_P2;Temp;Humidity;BMP_temperature;BMP_pressure;BME280_temperature;BME280_humidity;BME280_pressure;Samples;Min_cycle;Max_cycle;Signal;HPM_P1;HPM_P2
2024/03/07 00:00:54;;;;;;;44.60;27.55;;;;;;;;;;5064346;28;20021;-40
2024/03/07 00:03:20;;;;;;;52.60;26.73;;;;;;;;;;5063992;28;20335;-39
2024/03/07 00:05:47;;;;;;;48.60;26.67;;;;;;;;;;5062044;28;20032;-39
2024/03/07 00:08:13;;;;;;;33.22;26.25;;;;;;;;;;5060794;28;20021;-48
2024/03/07 00:10:41;;;;;;;38.88;25.80;;;;;;;;;;5061940;28;20094;-39
2024/03/07 00:13:07;;;;;;;43.00;27.27;;;;;;;;;;5061903;28;20036;-37
2024/03/07 00:15:34;;;;;;;43.42;26.42;;;;;;;;;;5062091;28;20182;-37
2024/03/07 00:18:01;;;;;;;31.40;26.05;;;;;;;;;;5061734;28;20024;-48
2024/03/07 00:20:27;;;;;;;44.80;26.02;;;;;;;;;;5063250;28;20036;-35
2024/03/07 00:22:54;;;;;;;31.83;26.77;;;;;;;;;;5063883;28;20013;-36
2024/03/07 00:25:22;;;;;;;35.17;26.50;;;;;;;;;;5064001;28;20067;-43
2024/03/07 00:27:49;;;;;;;44.92;26.70;;;;;;;;;;5065845;28;20017;-42
2024/03/07 00:30:18;;;;;;;47.10;27.45;;;;;;;;;;5067694;28;20336;-39
2024/03/07 00:32:45;;;;;;;45.92;26.73;;;;;;;;;;5067516;28;20027;-40
2024/03/07 00:35:12;;;;;;;37.55;25.40;;;;;;;;;;5067599;28;20021;-43
2024/03/07 00:37:38;;;;;;;51.03;26.88;;;;;;;;;;5067974;28;20017;-44
2024/03/07 00:40:06;;;;;;;43.03;25.42;;;;;;;;;;5067571;28;20329;-44
2024/03/07 00:42:32;;;;;;;41.88;26.50;;;;;;;;;;5067487;28;20036;-42
2024/03/07 00:44:59;;;;;;;33.17;25.80;;;;;;;;;;5066699;28;20025;-44
2024/03/07 00:47:26;;;;;;;33.28;24.80;;;;;;;;;;5067224;28;20025;-44
2024/03/07 00:49:54;;;;;;;28.83;24.45;;;;;;;;;;5067669;28;20036;-36
2024/03/07 00:52:20;;;;;;;40.33;25.52;;;;;;;;;;5067609;28;20028;-43
2024/03/07 00:54:47;;;;;;;33.10;25.75;;;;;;;;;;5067940;28;20037;-43
2024/03/07 00:57:14;;;;;;;77.22;28.73;;;;;;;;;;5068079;28;20017;-37
2024/03/07 00:59:41;;;;;;;46.72;25.83;;;;;;;;;;5067452;28;20017;-47
2024/03/07 01:02:08;;;;;;;55.25;27.83;;;;;;;;;;5067540;28;20169;-36
2024/03/07 01:04:34;;;;;;;50.10;26.80;;;;;;;;;;5066916;28;20186;-44
2024/03/07 01:07:01;;;;;;;43.42;27.00;;;;;;;;;;5067433;28;20210;-43
2024/03/07 01:09:30;;;;;;;31.45;27.17;;;;;;;;;;5066910;28;20017;-36
2024/03/07 01:11:59;;;;;;;31.35;25.27;;;;;;;;;;5066995;28;20036;-40
2024/03/07 01:14:27;;;;;;;33.47;27.45;;;;;;;;;;5066893;28;20086;-39
2024/03/07 01:16:53;;;;;;;36.75;26.23;;;;;;;;;;5067439;28;20198;-46
2024/03/07 01:19:20;;;;;;;109.35;32.80;;;;;;;;;;5064129;28;20016;-37
2024/03/07 01:21:47;;;;;;;42.88;26.90;;;;;;;;;;5063655;28;20092;-37
2024/03/07 01:24:17;;;;;;;40.30;27.98;;;;;;;;;;5066452;28;20050;-40
2024/03/07 01:26:45;;;;;;;36.22;26.27;;;;;;;;;;5066973;28;20033;-36
2024/03/07 01:29:13;;;;;;;33.10;26.92;;;;;;;;;;5066872;28;20025;-39
2024/03/07 01:31:40;;;;;;;33.90;27.52;;;;;;;;;;5065028;28;20064;-36
2024/03/07 01:34:08;;;;;;;39.85;28.73;;;;;;;;;;5060259;28;20336;-39
2024/03/07 01:36:35;;;;;;;42.22;27.95;;;;;;;;;;5054277;28;20031;-42
2024/03/07 01:39:03;;;;;;;34.97;27.50;;;;;;;;;;5054121;28;20017;-44
2024/03/07 01:41:30;;;;;;;30.60;26.65;;;;;;;;;;5050106;28;20025;-49
2024/03/07 01:43:57;;;;;;;34.67;27.20;;;;;;;;;;5057410;28;20028;-45
2024/03/07 01:46:24;;;;;;;34.00;27.65;;;;;;;;;;5062041;28;20045;-48
2024/03/07 01:48:54;;;;;;;32.45;26.70;;;;;;;;;;5046815;28;20048;-44
2024/03/07 01:51:22;;;;;;;30.42;26.67;;;;;;;;;;5045637;28;20025;-41
2024/03/07 01:53:49;;;;;;;37.95;27.00;;;;;;;;;;5045552;28;20025;-42
2024/03/07 01:56:17;;;;;;;31.00;26.13;;;;;;;;;;5046984;28;20029;-45
2024/03/07 01:58:48;;;;;;;32.05;26.30;;;;;;;;;;5046637;28;20025;-51
2024/03/07 02:01:18;;;;;;;67.10;29.85;;;;;;;;;;5046686;28;20037;-36
2024/03/07 02:03:46;;;;;;;31.23;27.20;;;;;;;;;;5046317;28;20322;-39
2024/03/07 02:06:13;;;;;;;30.65;26.17;;;;;;;;;;5046670;28;20029;-39
2024/03/07 02:08:40;;;;;;;30.48;26.05;;;;;;;;;;5045103;28;20038;-36
2024/03/07 02:11:09;;;;;;;30.95;25.80;;;;;;;;;;5046861;28;20029;-40
2024/03/07 02:13:38;;;;;;;30.33;26.05;;;;;;;;;;5048662;28;20021;-35
2024/03/07 02:16:07;;;;;;;29.33;25.88;;;;;;;;;;5055755;28;20088;-35
2024/03/07 02:18:35;;;;;;;36.75;26.58;;;;;;;;;;5065680;28;20032;-37
2024/03/07 02:21:11;;;;;;;63.38;28.65;;;;;;;;;;5059678;28;20201;-39
2024/03/07 02:23:39;;;;;;;33.65;25.75;;;;;;;;;;5056708;28;20032;-39
2024/03/07 02:26:10;;;;;;;53.38;28.10;;;;;;;;;;5057515;28;20037;-39
2024/03/07 02:28:40;;;;;;;42.53;27.05;;;;;;;;;;5048964;28;20041;-34
2024/03/07 02:31:07;;;;;;;42.95;27.27;;;;;;;;;;5054469;28;20029;-43
2024/03/07 02:33:34;;;;;;;40.72;26.63;;;;;;;;;;5045270;28;20045;-40
2024/03/07 02:36:03;;;;;;;52.13;28.08;;;;;;;;;;5045360;28;20037;-38
2024/03/07 02:38:30;;;;;;;60.05;29.10;;;;;;;;;;5046372;28;20048;-37
2024/03/07 02:40:58;;;;;;;55.45;28.67;;;;;;;;;;5045433;28;20025;-38
2024/03/07 02:43:25;;;;;;;43.13;28.45;;;;;;;;;;5045185;28;20021;-35
2024/03/07 02:45:52;;;;;;;43.65;28.38;;;;;;;;;;5045166;28;20057;-41
2024/03/07 02:48:19;;;;;;;38.60;28.55;;;;;;;;;;5044993;28;20055;-37
2024/03/07 02:50:47;;;;;;;45.38;28.20;;;;;;;;;;5052000;28;20088;-35
2024/03/07 02:53:14;;;;;;;34.72;28.00;;;;;;;;;;5060280;28;20021;-46
2024/03/07 02:55:45;;;;;;;36.88;27.83;;;;;;;;;;5064926;28;20041;-38
2024/03/07 02:58:16;;;;;;;34.53;27.08;;;;;;;;;;5064910;28;20020;-36
2024/03/07 03:00:43;;;;;;;31.15;27.45;;;;;;;;;;5065090;28;20035;-39
2024/03/07 03:03:11;;;;;;;35.78;27.65;;;;;;;;;;5064908;28;20332;-38
2024/03/07 03:05:38;;;;;;;37.88;26.73;;;;;;;;;;5059275;28;20029;-41
2024/03/07 03:08:06;;;;;;;35.05;27.40;;;;;;;;;;5048567;28;20032;-36
2024/03/07 03:10:34;;;;;;;31.90;26.90;;;;;;;;;;5044536;28;20033;-44
2024/03/07 03:13:02;;;;;;;39.58;26.88;;;;;;;;;;5045082;28;20021;-40
2024/03/07 03:15:29;;;;;;;29.55;26.35;;;;;;;;;;5047145;28;20139;-37
2024/03/07 03:17:59;;;;;;;32.13;26.75;;;;;;;;;;5053483;28;20088;-48
2024/03/07 03:20:33;;;;;;;36.47;27.85;;;;;;;;;;5044765;28;20340;-42
2024/03/07 03:23:04;;;;;;;32.83;27.15;;;;;;;;;;5057712;28;20070;-48
2024/03/07 03:25:34;;;;;;;30.75;27.38;;;;;;;;;;5063333;28;20029;-55
2024/03/07 03:28:09;;;;;;;31.30;27.08;;;;;;;;;;5055560;28;20273;-51
2024/03/07 03:30:38;;;;;;;30.05;26.83;;;;;;;;;;5045300;28;20025;-47
2024/03/07 03:33:08;;;;;;;30.25;27.15;;;;;;;;;;5044875;28;20084;-39
2024/03/07 03:35:35;;;;;;;31.15;27.42;;;;;;;;;;5045083;28;20029;-38
2024/03/07 03:38:02;;;;;;;30.77;27.58;;;;;;;;;;5045083;28;20098;-41
2024/03/07 03:40:29;;;;;;;31.45;28.13;;;;;;;;;;5044807;28;20025;-42
2024/03/07 03:42:56;;;;;;;31.25;28.15;;;;;;;;;;5044612;28;20033;-37
2024/03/07 03:45:25;;;;;;;29.95;26.77;;;;;;;;;;5044768;28;20285;-36
2024/03/07 03:47:52;;;;;;;30.25;27.23;;;;;;;;;;5049245;28;20052;-43
2024/03/07 03:50:18;;;;;;;30.63;27.58;;;;;;;;;;5063589;28;20241;-42
2024/03/07 03:52:45;;;;;;;29.73;26.73;;;;;;;;;;5064100;28;20044;-36
2024/03/07 03:55:12;;;;;;;30.63;27.80;;;;;;;;;;5064228;28;20098;-40
2024/03/07 03:57:40;;;;;;;31.52;28.13;;;;;;;;;;5058328;28;20323;-36
2024/03/07 04:00:13;;;;;;;34.25;28.60;;;;;;;;;;5048792;28;20032;-37
2024/03/07 04:02:40;;;;;;;33.63;28.23;;;;;;;;;;5043663;28;20218;-39
2024/03/07 04:05:09;;;;;;;31.80;28.42;;;;;;;;;;5046149;28;20092;-42
2024/03/07 04:07:36;;;;;;;33.58;27.90;;;;;;;;;;5053648;28;20045;-37
2024/03/07 04:10:08;;;;;;;31.55;28.30;;;;;;;;;;5044560;28;20029;-36
2024/03/07 04:12:38;;;;;;;32.35;28.98;;;;;;;;;;5044013;28;20025;-36
2024/03/07 04:15:09;;;;;;;30.95;28.00;;;;;;;;;;5055104;28;20025;-40
2024/03/07 04:17:35;;;;;;;37.53;28.05;;;;;;;;;;5044037;28;20261;-36
2024/03/07 04:20:06;;;;;;;31.38;28.25;;;;;;;;;;5050685;28;20090;-37
2024/03/07 04:22:38;;;;;;;31.73;28.52;;;;;;;;;;5051783;28;20020;-40
2024/03/07 04:25:06;;;;;;;32.83;28.02;;;;;;;;;;5053405;28;20029;-37
2024/03/07 04:27:36;;;;;;;29.88;26.80;;;;;;;;;;5044629;28;20033;-36
2024/03/07 04:30:06;;;;;;;32.67;29.35;;;;;;;;;;5044201;28;20025;-36
2024/03/07 04:32:34;;;;;;;29.92;27.05;;;;;;;;;;5043938;28;20021;-37
2024/03/07 04:35:02;;;;;;;30.27;27.02;;;;;;;;;;5044031;28;20037;-37
2024/03/07 04:37:29;;;;;;;30.70;27.33;;;;;;;;;;5044150;28;20010;-46
2024/03/07 04:39:55;;;;;;;29.50;26.55;;;;;;;;;;5043986;28;20022;-35
2024/03/07 04:42:22;;;;;;;41.03;29.27;;;;;;;;;;5044101;28;20022;-38
2024/03/07 04:44:49;;;;;;;39.17;28.63;;;;;;;;;;5044320;28;20218;-40
2024/03/07 04:47:16;;;;;;;30.80;27.50;;;;;;;;;;5043980;28;20112;-40
2024/03/07 04:49:43;;;;;;;30.67;27.48;;;;;;;;;;5048493;28;20027;-37
2024/03/07 04:52:10;;;;;;;30.35;27.23;;;;;;;;;;5056867;28;20186;-41
2024/03/07 04:54:36;;;;;;;30.83;27.52;;;;;;;;;;5054916;28;20253;-45
2024/03/07 04:57:03;;;;;;;30.15;27.15;;;;;;;;;;5044241;28;20041;-38
2024/03/07 04:59:30;;;;;;;31.90;28.40;;;;;;;;;;5043857;28;20020;-37
2024/03/07 05:01:57;;;;;;;29.70;26.85;;;;;;;;;;5044219;28;20033;-49
2024/03/07 05:04:24;;;;;;;30.75;27.40;;;;;;;;;;5043966;28;20066;-37
2024/03/07 05:06:50;;;;;;;31.48;27.85;;;;;;;;;;5044660;28;20037;-43
2024/03/07 05:09:25;;;;;;;30.38;27.55;;;;;;;;;;5043898;28;20091;-41
2024/03/07 05:11:52;;;;;;;30.40;27.48;;;;;;;;;;5044516;28;20091;-40
2024/03/07 05:14:18;;;;;;;31.90;28.85;;;;;;;;;;5046804;28;20042;-37
2024/03/07 05:16:45;;;;;;;31.17;28.05;;;;;;;;;;5048177;28;20022;-36
2024/03/07 05:19:12;;;;;;;31.45;28.55;;;;;;;;;;5047808;28;20081;-37
2024/03/07 05:21:40;;;;;;;33.25;29.67;;;;;;;;;;5048083;28;20021;-39
2024/03/07 05:24:10;;;;;;;40.83;29.15;;;;;;;;;;5052316;28;20024;-44
2024/03/07 05:26:40;;;;;;;31.90;28.55;;;;;;;;;;5056833;28;20029;-39
2024/03/07 05:29:08;;;;;;;32.17;28.88;;;;;;;;;;5047287;28;20211;-47
2024/03/07 05:31:35;;;;;;;34.75;29.27;;;;;;;;;;5047523;28;20040;-49
2024/03/07 05:34:08;;;;;;;31.50;28.30;;;;;;;;;;5047411;28;20338;-36
2024/03/07 05:36:46;;;;;;;31.80;28.55;;;;;;;;;;5047904;28;20076;-43
2024/03/07 05:39:17;;;;;;;31.52;28.52;;;;;;;;;;5047203;28;20049;-44
2024/03/07 05:41:48;;;;;;;30.27;27.05;;;;;;;;;;5047878;28;20030;-44
2024/03/07 05:44:15;;;;;;;33.10;28.77;;;;;;;;;;5048587;28;20021;-44
2024/03/07 05:46:46;;;;;;;30.70;27.65;;;;;;;;;;5056017;28;20053;-43
2024/03/07 05:49:13;;;;;;;32.08;28.55;;;;;;;;;;5046799;28;20053;-46
2024/03/07 05:51:41;;;;;;;30.27;27.38;;;;;;;;;;5046957;28;20048;-45
2024/03/07 05:54:08;;;;;;;30.67;27.73;;;;;;;;;;5046801;28;20022;-37
2024/03/07 05:56:38;;;;;;;30.63;27.73;;;;;;;;;;5047043;28;20052;-40
2024/03/07 05:59:07;;;;;;;30.58;27.10;;;;;;;;;;5046793;28;20353;-37
2024/03/07 06:01:36;;;;;;;32.47;29.25;;;;;;;;;;5047037;28;20029;-35
2024/03/07 06:04:06;;;;;;;30.95;27.98;;;;;;;;;;5046791;28;20017;-37
2024/03/07 06:06:34;;;;;;;31.05;27.83;;;;;;;;;;5047042;28;20033;-37
2024/03/07 06:09:07;;;;;;;31.08;28.05;;;;;;;;;;5046512;28;20017;-36
2024/03/07 06:11:35;;;;;;;37.72;27.67;;;;;;;;;;5046799;28;20034;-37
2024/03/07 06:14:05;;;;;;;30.20;27.25;;;;;;;;;;5058065;28;20029;-37
2024/03/07 06:16:32;;;;;;;30.60;27.80;;;;;;;;;;5046634;28;20022;-41
2024/03/07 06:19:01;;;;;;;31.17;28.15;;;;;;;;;;5046201;28;20017;-40
2024/03/07 06:21:28;;;;;;;31.13;27.98;;;;;;;;;;5047042;28;20033;-40
2024/03/07 06:24:01;;;;;;;30.33;27.42;;;;;;;;;;5046693;28;20022;-36
2024/03/07 06:27:37;;;;;;;30.70;27.67;;;;;;;;;;5051104;28;20064;-51
2024/03/07 06:29:24;;;;;;;30.25;27.30;;;;;;;;;;5044842;28;20021;-45
2024/03/07 06:31:53;;;;;;;31.25;28.25;;;;;;;;;;5045875;28;20083;-51
2024/03/07 06:34:20;;;;;;;29.80;27.08;;;;;;;;;;5045344;28;20018;-44
2024/03/07 06:36:46;;;;;;;32.28;29.05;;;;;;;;;;5045159;28;20067;-39
2024/03/07 06:39:13;;;;;;;30.27;27.42;;;;;;;;;;5045419;28;20201;-40
2024/03/07 06:41:40;;;;;;;29.42;26.75;;;;;;;;;;5045632;28;20052;-36
2024/03/07 06:44:07;;;;;;;30.77;27.67;;;;;;;;;;5045173;28;20045;-36
2024/03/07 06:46:34;;;;;;;31.02;27.70;;;;;;;;;;5045271;28;20283;-39
2024/03/07 06:49:01;;;;;;;30.20;27.15;;;;;;;;;;5045470;28;20026;-44
2024/03/07 06:51:27;;;;;;;29.73;26.92;;;;;;;;;;5045240;28;20302;-47
2024/03/07 06:53:55;;;;;;;29.50;26.42;;;;;;;;;;5045440;28;20021;-38
2024/03/07 06:56:23;;;;;;;30.42;27.63;;;;;;;;;;5045340;28;20032;-42
2024/03/07 06:58:49;;;;;;;30.45;27.50;;;;;;;;;;5044895;28;20031;-44
2024/03/07 07:01:18;;;;;;;30.02;26.95;;;;;;;;;;5048372;28;20037;-41
2024/03/07 07:03:45;;;;;;;29.42;26.60;;;;;;;;;;5045071;28;20032;-38
2024/03/07 07:06:12;;;;;;;29.25;26.55;;;;;;;;;;5045066;28;20033;-39
2024/03/07 07:08:39;;;;;;;30.10;27.17;;;;;;;;;;5045201;28;20308;-39
2024/03/07 07:11:05;;;;;;;30.88;27.65;;;;;;;;;;5045283;28;20044;-40
2024/03/07 07:13:32;;;;;;;30.40;27.08;;;;;;;;;;5049093;28;20017;-41
2024/03/07 07:15:59;;;;;;;30.50;27.60;;;;;;;;;;5065308;28;20024;-41
2024/03/07 07:18:26;;;;;;;31.02;27.90;;;;;;;;;;5064980;28;20025;-38
2024/03/07 07:20:52;;;;;;;30.88;27.98;;;;;;;;;;5064766;28;20041;-42
2024/03/07 07:23:19;;;;;;;31.17;28.17;;;;;;;;;;5064943;28;20021;-37
2024/03/07 07:25:46;;;;;;;30.73;27.80;;;;;;;;;;5064652;28;20025;-37
2024/03/07 07:28:13;;;;;;;32.13;28.70;;;;;;;;;;5064541;28;20028;-46
2024/03/07 07:30:39;;;;;;;31.55;28.50;;;;;;;;;;5064561;28;20040;-44
2024/03/07 07:33:06;;;;;;;31.25;28.17;;;;;;;;;;5064500;28;20154;-47
2024/03/07 07:35:34;;;;;;;31.17;28.38;;;;;;;;;;5064854;28;20032;-43
2024/03/07 07:38:01;;;;;;;30.77;27.92;;;;;;;;;;5063858;28;20024;-42
2024/03/07 07:40:28;;;;;;;32.17;29.13;;;;;;;;;;5064897;28;20028;-51
2024/03/07 07:42:55;;;;;;;31.73;28.45;;;;;;;;;;5064543;28;20017;-45
2024/03/07 07:45:22;;;;;;;31.75;28.75;;;;;;;;;;5064282;28;20045;-47
2024/03/07 07:47:51;;;;;;;32.15;28.95;;;;;;;;;;5064244;28;20020;-53
2024/03/07 07:50:18;;;;;;;31.40;28.50;;;;;;;;;;5064738;28;20028;-47
2024/03/07 07:52:49;;;;;;;31.83;28.85;;;;;;;;;;5063951;28;20021;-44
2024/03/07 07:55:19;;;;;;;30.47;27.57;;;;;;;;;;5064614;28;20048;-42
2024/03/07 07:57:47;;;;;;;30.98;28.13;;;;;;;;;;5064226;28;20020;-42
2024/03/07 08:00:24;;;;;;;30.60;27.80;;;;;;;;;;5064356;28;20027;-46
2024/03/07 08:02:57;;;;;;;30.63;27.73;;;;;;;;;;5064198;28;20024;-47
2024/03/07 08:05:25;;;;;;;30.77;27.73;;;;;;;;;;5053322;28;20033;-49
2024/03/07 08:07:52;;;;;;;30.15;27.38;;;;;;;;;;5044201;28;20213;-43
2024/03/07 08:10:20;;;;;;;31.13;28.23;;;;;;;;;;5044471;28;20037;-38
2024/03/07 08:12:48;;;;;;;31.50;28.60;;;;;;;;;;5044296;28;20039;-38
2024/03/07 08:15:15;;;;;;;29.80;27.15;;;;;;;;;;5044265;28;20034;-44
2024/03/07 08:17:43;;;;;;;30.23;27.52;;;;;;;;;;5044121;28;20229;-43
2024/03/07 08:20:13;;;;;;;29.60;26.75;;;;;;;;;;5044379;28;20048;-48
2024/03/07 08:22:43;;;;;;;31.27;28.17;;;;;;;;;;5044057;28;20257;-46
2024/03/07 08:25:10;;;;;;;30.20;27.50;;;;;;;;;;5043730;28;20245;-47
2024/03/07 08:27:38;;;;;;;30.63;27.65;;;;;;;;;;5043695;28;20183;-40
2024/03/07 08:30:12;;;;;;;30.50;27.67;;;;;;;;;;5043857;28;20262;-43
2024/03/07 08:32:42;;;;;;;30.95;28.00;;;;;;;;;;5043677;28;20080;-45
2024/03/07 08:35:11;;;;;;;30.05;27.10;;;;;;;;;;5043999;28;20040;-38
2024/03/07 08:37:41;;;;;;;29.85;27.10;;;;;;;;;;5043804;28;20028;-45
2024/03/07 08:40:09;;;;;;;29.98;27.38;;;;;;;;;;5043751;28;20317;-41
2024/03/07 08:42:39;;;;;;;30.88;28.00;;;;;;;;;;5044145;28;20022;-50
2024/03/07 08:45:06;;;;;;;30.23;27.50;;;;;;;;;;5043563;28;20033;-41
2024/03/07 08:47:33;;;;;;;30.90;28.20;;;;;;;;;;5043690;28;20076;-45
2024/03/07 08:50:00;;;;;;;31.42;28.52;;;;;;;;;;5047592;28;20214;-49
2024/03/07 08:52:27;;;;;;;29.48;26.83;;;;;;;;;;5047259;28;20380;-48
2024/03/07 08:54:55;;;;;;;31.10;28.10;;;;;;;;;;5047436;28;20045;-43
2024/03/07 08:57:22;;;;;;;31.15;27.90;;;;;;;;;;5047514;28;20013;-41
2024/03/07 08:59:48;;;;;;;30.55;27.75;;;;;;;;;;5047316;28;20037;-48
2024/03/07 09:02:15;;;;;;;30.55;27.70;;;;;;;;;;5047297;28;20092;-43
2024/03/07 09:04:42;;;;;;;30.25;27.45;;;;;;;;;;5047298;28;20029;-41
2024/03/07 09:07:08;;;;;;;32.10;28.42;;;;;;;;;;5047552;28;20021;-40
2024/03/07 09:09:35;;;;;;;30.75;28.00;;;;;;;;;;5047264;28;20236;-49
2024/03/07 09:12:02;;;;;;;30.25;27.27;;;;;;;;;;5047448;28;20122;-38
2024/03/07 09:14:29;;;;;;;29.52;26.85;;;;;;;;;;5047501;28;20017;-39
2024/03/07 09:16:56;;;;;;;31.23;28.52;;;;;;;;;;5047277;28;20030;-45
2024/03/07 09:19:27;;;;;;;28.95;26.15;;;;;;;;;;5046821;28;20026;-38
2024/03/07 09:21:54;;;;;;;31.00;27.98;;;;;;;;;;5047255;28;20025;-36
2024/03/07 09:24:21;;;;;;;39.03;28.52;;;;;;;;;;5047233;28;20044;-44
2024/03/07 09:26:49;;;;;;;154.93;38.88;;;;;;;;;;5047601;28;20033;-39
2024/03/07 09:29:15;;;;;;;120.55;36.17;;;;;;;;;;5046837;28;20025;-39
2024/03/07 09:31:42;;;;;;;200.95;44.42;;;;;;;;;;5046590;28;20029;-38
2024/03/07 09:34:09;;;;;;;114.07;38.53;;;;;;;;;;5046813;28;20028;-47
2024/03/07 09:36:35;;;;;;;117.82;37.22;;;;;;;;;;5047747;28;20030;-38
2024/03/07 09:39:02;;;;;;;116.75;37.90;;;;;;;;;;5046498;28;20036;-38
2024/03/07 09:41:28;;;;;;;85.90;35.22;;;;;;;;;;5046970;28;20029;-44
2024/03/07 09:43:55;;;;;;;96.55;35.58;;;;;;;;;;5046748;28;20217;-40
2024/03/07 09:46:23;;;;;;;73.30;35.00;;;;;;;;;;5046376;28;20053;-35
2024/03/07 09:48:54;;;;;;;66.93;32.28;;;;;;;;;;5046427;28;20028;-42
2024/03/07 09:51:24;;;;;;;58.03;31.05;;;;;;;;;;5046627;28;20033;-42
2024/03/07 09:53:52;;;;;;;48.78;29.98;;;;;;;;;;5046334;28;20036;-36
2024/03/07 09:56:21;;;;;;;59.65;31.20;;;;;;;;;;5059827;28;20363;-38
2024/03/07 09:58:51;;;;;;;36.40;27.08;;;;;;;;;;5065941;28;20259;-43
2024/03/07 10:01:20;;;;;;;39.03;28.08;;;;;;;;;;5065515;28;20059;-41
2024/03/07 10:03:48;;;;;;;35.50;25.60;;;;;;;;;;5065872;28;20021;-43
2024/03/07 10:06:15;;;;;;;31.30;24.65;;;;;;;;;;5066111;28;20264;-36
2024/03/07 10:08:43;;;;;;;29.30;24.13;;;;;;;;;;5066019;28;20063;-37
2024/03/07 10:11:10;;;;;;;35.05;24.63;;;;;;;;;;5066175;28;20033;-37
2024/03/07 10:13:36;;;;;;;27.00;22.77;;;;;;;;;;5052768;28;20081;-41
2024/03/07 10:16:04;;;;;;;25.95;21.92;;;;;;;;;;5066147;28;20078;-36
2024/03/07 10:18:32;;;;;;;28.00;23.38;;;;;;;;;;5065655;28;20066;-38
2024/03/07 10:20:59;;;;;;;24.23;21.77;;;;;;;;;;5065846;28;20037;-49
2024/03/07 10:23:26;;;;;;;27.65;22.48;;;;;;;;;;5065554;28;20031;-36
2024/03/07 10:25:55;;;;;;;25.85;22.30;;;;;;;;;;5065927;28;20036;-36
2024/03/07 10:28:21;;;;;;;26.23;22.83;;;;;;;;;;5065355;28;20250;-38
2024/03/07 10:30:50;;;;;;;26.27;23.58;;;;;;;;;;5065627;28;20029;-36
2024/03/07 10:33:16;;;;;;;25.70;23.00;;;;;;;;;;5065366;28;20021;-36
2024/03/07 10:35:43;;;;;;;26.65;23.92;;;;;;;;;;5065566;28;20201;-37
2024/03/07 10:38:11;;;;;;;26.95;23.63;;;;;;;;;;5065477;28;20021;-40
2024/03/07 10:40:40;;;;;;;30.25;25.10;;;;;;;;;;5065390;28;20021;-36
2024/03/07 10:43:11;;;;;;;27.83;24.15;;;;;;;;;;5065030;28;20031;-37
2024/03/07 10:45:47;;;;;;;27.08;24.27;;;;;;;;;;5065055;28;20061;-37
2024/03/07 10:48:17;;;;;;;27.80;24.42;;;;;;;;;;5064990;28;20017;-38
2024/03/07 10:50:55;;;;;;;28.70;24.27;;;;;;;;;;5065151;28;20357;-41
2024/03/07 10:53:30;;;;;;;28.60;25.52;;;;;;;;;;5065006;28;20020;-37
2024/03/07 10:56:15;;;;;;;51.70;27.10;;;;;;;;;;5065208;28;20320;-37
2024/03/07 10:58:59;;;;;;;49.08;26.90;;;;;;;;;;5064961;28;20021;-37
2024/03/07 11:01:27;;;;;;;38.67;26.00;;;;;;;;;;5065219;28;20036;-36
2024/03/07 11:03:57;;;;;;;41.00;26.27;;;;;;;;;;5064673;28;20025;-37
2024/03/07 11:06:24;;;;;;;33.60;24.75;;;;;;;;;;5065129;28;20036;-45
2024/03/07 11:08:52;;;;;;;37.80;25.85;;;;;;;;;;5064705;28;20135;-37
2024/03/07 11:11:19;;;;;;;32.67;26.20;;;;;;;;;;5064949;28;20021;-47
2024/03/07 11:13:47;;;;;;;42.35;27.20;;;;;;;;;;5064589;28;20016;-38
2024/03/07 11:16:14;;;;;;;31.42;25.60;;;;;;;;;;5064974;28;20028;-41
2024/03/07 11:18:41;;;;;;;37.55;26.30;;;;;;;;;;5064490;28;20320;-45
2024/03/07 11:21:08;;;;;;;38.75;25.65;;;;;;;;;;5064728;28;20028;-44
2024/03/07 11:23:41;;;;;;;35.10;24.00;;;;;;;;;;5064660;28;20020;-45
2024/03/07 11:26:09;;;;;;;40.75;25.45;;;;;;;;;;5064767;28;20020;-45
2024/03/07 11:28:41;;;;;;;90.13;27.63;;;;;;;;;;5064428;28;20044;-40
2024/03/07 11:31:27;;;;;;;49.65;25.80;;;;;;;;;;5064919;28;20037;-41
2024/03/07 11:34:12;;;;;;;40.42;26.40;;;;;;;;;;5064600;28;20064;-41
2024/03/07 11:36:45;;;;;;;36.55;25.55;;;;;;;;;;5064729;28;20097;-39
2024/03/07 11:39:36;;;;;;;34.35;25.15;;;;;;;;;;5064191;28;20314;-46
2024/03/07 11:42:03;;;;;;;32.65;25.63;;;;;;;;;;5064067;28;20033;-48
2024/03/07 11:44:29;;;;;;;40.10;25.95;;;;;;;;;;5064235;28;20021;-38
2024/03/07 11:46:57;;;;;;;47.75;25.40;;;;;;;;;;5064006;28;20112;-38
2024/03/07 11:49:24;;;;;;;49.13;25.35;;;;;;;;;;5063873;28;20039;-36
2024/03/07 11:51:51;;;;;;;43.47;24.95;;;;;;;;;;5064761;28;20028;-43
2024/03/07 11:54:24;;;;;;;50.22;25.90;;;;;;;;;;5063937;28;20268;-47
2024/03/07 11:56:51;;;;;;;37.60;24.58;;;;;;;;;;5064319;28;20035;-39
2024/03/07 11:59:18;;;;;;;43.90;26.27;;;;;;;;;;5064229;28;20101;-40
2024/03/07 12:01:44;;;;;;;33.90;24.90;;;;;;;;;;5063825;28;20028;-48
2024/03/07 12:04:15;;;;;;;27.17;23.30;;;;;;;;;;5063948;28;20070;-46
2024/03/07 12:06:50;;;;;;;31.27;25.08;;;;;;;;;;5064257;28;20036;-44
2024/03/07 12:09:23;;;;;;;38.67;25.20;;;;;;;;;;5063742;28;20017;-46
2024/03/07 12:11:52;;;;;;;44.05;25.05;;;;;;;;;;5064083;28;20060;-46
2024/03/07 12:14:23;;;;;;;42.85;24.83;;;;;;;;;;5063750;28;20013;-51
2024/03/07 12:16:49;;;;;;;38.03;24.25;;;;;;;;;;5064014;28;20029;-45
2024/03/07 12:19:17;;;;;;;34.50;24.85;;;;;;;;;;5063787;28;20044;-47
2024/03/07 12:21:44;;;;;;;27.38;24.60;;;;;;;;;;5064345;28;20331;-45
2024/03/07 12:24:15;;;;;;;27.52;23.75;;;;;;;;;;5066375;28;20258;-46
2024/03/07 12:26:45;;;;;;;36.72;24.40;;;;;;;;;;5068267;28;20025;-49
2024/03/07 12:29:12;;;;;;;36.40;24.40;;;;;;;;;;5067724;28;20023;-40
2024/03/07 12:31:48;;;;;;;28.50;24.55;;;;;;;;;;5068031;28;20329;-43
2024/03/07 12:34:15;;;;;;;37.03;28.08;;;;;;;;;;5067712;28;20035;-39
2024/03/07 12:36:47;;;;;;;44.17;29.42;;;;;;;;;;5067966;28;20032;-43
2024/03/07 12:39:29;;;;;;;38.35;28.60;;;;;;;;;;5067469;28;20017;-46
2024/03/07 12:41:58;;;;;;;39.23;27.73;;;;;;;;;;5068153;28;20036;-50
2024/03/07 12:44:25;;;;;;;36.55;27.00;;;;;;;;;;5067637;28;20079;-44
2024/03/07 12:46:58;;;;;;;31.98;25.95;;;;;;;;;;5067188;28;20128;-49
2024/03/07 12:49:26;;;;;;;28.65;25.55;;;;;;;;;;5067149;28;20071;-47
2024/03/07 12:51:59;;;;;;;32.22;24.58;;;;;;;;;;5067698;28;20091;-51
2024/03/07 12:54:27;;;;;;;32.33;24.83;;;;;;;;;;5067305;28;20017;-48
2024/03/07 12:56:53;;;;;;;28.80;23.98;;;;;;;;;;5067029;28;20048;-45
2024/03/07 12:59:24;;;;;;;28.13;23.55;;;;;;;;;;5067424;28;20072;-40
2024/03/07 13:01:50;;;;;;;27.58;23.40;;;;;;;;;;5067656;28;20032;-46
2024/03/07 13:04:17;;;;;;;38.13;24.00;;;;;;;;;;5067069;28;20020;-45
2024/03/07 13:06:46;;;;;;;39.20;23.85;;;;;;;;;;5067608;28;20039;-42
2024/03/07 13:09:13;;;;;;;32.90;23.02;;;;;;;;;;5067001;28;20063;-38
2024/03/07 13:11:47;;;;;;;37.30;24.75;;;;;;;;;;5067299;28;20033;-52
2024/03/07 13:14:14;;;;;;;36.00;24.52;;;;;;;;;;5066817;28;20208;-40
2024/03/07 13:16:42;;;;;;;37.95;24.20;;;;;;;;;;5067374;28;20029;-45
2024/03/07 13:19:11;;;;;;;48.97;25.05;;;;;;;;;;5066803;28;20025;-38
2024/03/07 13:21:41;;;;;;;62.80;24.25;;;;;;;;;;5067182;28;20033;-43
2024/03/07 13:24:08;;;;;;;43.13;24.30;;;;;;;;;;5066670;28;20039;-48
2024/03/07 13:26:36;;;;;;;79.05;27.67;;;;;;;;;;5066932;28;20032;-38
2024/03/07 13:29:02;;;;;;;60.55;24.70;;;;;;;;;;5066857;28;20024;-39
2024/03/07 13:31:29;;;;;;;42.22;24.13;;;;;;;;;;5066391;28;20191;-43
2024/03/07 13:33:56;;;;;;;41.08;23.10;;;;;;;;;;5065999;28;20027;-39
2024/03/07 13:36:24;;;;;;;43.13;23.35;;;;;;;;;;5066182;28;20048;-36
2024/03/07 13:38:55;;;;;;;33.35;20.92;;;;;;;;;;5066297;28;20313;-39
2024/03/07 13:41:22;;;;;;;26.75;21.92;;;;;;;;;;5066713;28;20043;-40
2024/03/07 13:43:49;;;;;;;30.23;22.02;;;;;;;;;;5066303;28;20013;-48
2024/03/07 13:46:17;;;;;;;25.15;20.85;;;;;;;;;;5066220;28;20357;-42
2024/03/07 13:48:46;;;;;;;25.90;21.95;;;;;;;;;;5066498;28;20025;-44
2024/03/07 13:51:15;;;;;;;25.33;21.40;;;;;;;;;;5066452;28;20032;-44
2024/03/07 13:53:50;;;;;;;24.23;20.67;;;;;;;;;;5065996;28;20017;-41
2024/03/07 13:56:35;;;;;;;24.42;21.70;;;;;;;;;;5066313;28;20029;-37
2024/03/07 13:59:04;;;;;;;24.25;21.65;;;;;;;;;;5065965;28;20044;-39
2024/03/07 14:01:49;;;;;;;24.05;21.52;;;;;;;;;;5063395;28;20029;-39
2024/03/07 14:04:16;;;;;;;27.58;22.30;;;;;;;;;;5065689;28;20025;-41
2024/03/07 14:06:45;;;;;;;27.27;22.42;;;;;;;;;;5066619;28;20057;-43
2024/03/07 14:09:30;;;;;;;30.05;22.52;;;;;;;;;;5066035;28;20025;-39
2024/03/07 14:12:10;;;;;;;29.48;22.60;;;;;;;;;;5065230;28;20028;-46
2024/03/07 14:14:53;;;;;;;33.67;22.50;;;;;;;;;;5065601;28;20048;-40
2024/03/07 14:17:38;;;;;;;35.75;23.20;;;;;;;;;;5066333;28;20412;-40
2024/03/07 14:20:20;;;;;;;31.75;23.13;;;;;;;;;;5065778;28;20329;-42
2024/03/07 14:23:05;;;;;;;29.73;23.50;;;;;;;;;;5065860;28;20044;-53
2024/03/07 14:25:52;;;;;;;28.83;23.65;;;;;;;;;;5065699;28;20040;-51